Spaceon02064 — ASD — position and weather

sailwx.info

Track history (hours):
 
Tides and Currents Weather Stations Pressure Air Temp Water Temp Dewpoint Dewpoint Depression Visibility Wind Speed Wind Dir Waves Ship Positions

Spaceon02064

Last reported at 2015-Sep-04 18:33 UTC. Time now 2015-Sep-04 18:49 UTC.
Position N 31°22' E 121°43'.

Length 6 m.

Type: Ship. MMSI: 200902064.

Date/timePositionNaut miles runAvg speedWind from/ knotsBaromVisibWave heightAir tempDewpointWater temp
2015-Sep-04 18:33N 31°22' E 121°43'38050678.0
2015-Sep-04 18:33N 37°41' E 121°15'380380.1
2015-Sep-04 17:33N 31°22' E 121°43'37846921.9
2015-Sep-04 17:32N 37°39' E 121°19'378384.3
2015-Sep-04 16:33N 31°22' E 121°43'377678523.6
2015-Sep-04 16:33N 37°38' E 121°23'377376.0
2015-Sep-04 15:33N 31°22' E 121°43'37764582.9
2015-Sep-04 15:33N 37°38' E 121°22'377380.1
2015-Sep-04 14:33N 31°22' E 121°43'37732323.5
2015-Sep-04 14:33N 37°38' E 121°22'377380.5
2015-Sep-04 13:33N 31°22' E 121°43'377339412.9
2015-Sep-04 13:33N 37°38' E 121°22'377377.6
2015-Sep-04 12:33N 31°22' E 121°43'376675992.4
2015-Sep-04 12:33N 37°37' E 121°25'2 2.0
2015-Sep-04 11:33N 37°38' E 121°23'376169348.1
2015-Sep-04 11:33N 31°22' E 121°43'2323.6
2015-Sep-04 10:33N 31°04' E 122°01'235630.4
2015-Sep-04 10:33N 31°22' E 121°43'3781361260.3
2015-Sep-04 10:33N 37°39' E 121°19'392393.7
2015-Sep-04 09:33N 31°08' E 121°54'1659390.1
2015-Sep-04 09:33N 31°22' E 121°43'3814398.3
2015-Sep-04 09:28N 37°42' E 121°13'391428.0
2015-Sep-04 08:33N 31°12' E 121°49'117929.7
2015-Sep-04 08:33N 31°22' E 121°43'0 0.0
2015-Sep-04 07:33N 31°22' E 121°43'92401.8
2015-Sep-04 07:33N 31°13' E 121°48'9 9.4
2015-Sep-04 06:33N 31°22' E 121°43'92588.1
2015-Sep-04 06:33N 31°13' E 121°48'9 9.4
2015-Sep-04 05:33N 31°22' E 121°43'81808.3
2015-Sep-04 05:33N 31°14' E 121°47'5 5.1
2015-Sep-04 04:33N 31°18' E 121°43'43180.6
2015-Sep-04 04:33N 31°22' E 121°43'0 0.0
2015-Sep-04 03:33N 31°22' E 121°43'71728.1
2015-Sep-04 03:33N 31°23' E 121°36'7 6.7
2015-Sep-04 02:33N 31°22' E 121°43'1847.3
2015-Sep-04 02:10N 31°29' E 121°24'1219.4
2015-Sep-04 01:33N 31°20' E 121°32'93784.2
2015-Sep-04 01:33N 31°22' E 121°43'23100.5
2015-Sep-04 01:19N 31°33' E 121°20'2330.0
2015-Sep-04 00:33N 31°22' E 121°43'96780.2
2015-Sep-04 00:33N 31°20' E 121°32'9 9.5
2015-Sep-03 23:34N 31°22' E 121°43'101873.9
2015-Sep-03 23:33N 31°16' E 121°33'1010.4
2015-Sep-03 22:33N 31°22' E 121°43'11116.3
2015-Sep-03 22:28N 31°16' E 121°32'1112.3
2015-Sep-03 21:33N 31°22' E 121°43'11262.2
2015-Sep-03 21:31N 31°16' E 121°32'38824082.4
2015-Sep-03 21:30N 37°43' E 121°10'382403.8
2015-Sep-03 20:33N 31°22' E 121°43'3826198.9
2015-Sep-03 20:29N 37°43' E 121°12'38814397.4
2015-Sep-03 20:28N 31°16' E 121°32'0 0.0
2015-Sep-03 19:34N 31°16' E 121°32'116684.9
2015-Sep-03 19:33N 31°22' E 121°43'3832051.0
2015-Sep-03 19:22N 37°44' E 121°13'383470.6
2015-Sep-03 18:33N 31°22' E 121°43'1140109.4
2015-Sep-03 18:33N 31°16' E 121°32'3871699.0
2015-Sep-03 18:20N 37°43' E 121°15'382494.7
2015-Sep-03 17:33N 31°22' E 121°43'11216.8
2015-Sep-03 17:30N 31°16' E 121°32'38710813.6
2015-Sep-03 17:28N 37°43' E 121°12'382418.4
2015-Sep-03 16:33N 31°22' E 121°43'113342.4
2015-Sep-03 16:33N 31°16' E 121°32'386463325.9
2015-Sep-03 16:33N 37°41' E 121°16'380379.7
2015-Sep-03 15:33N 31°22' E 121°43'11231.8
2015-Sep-03 15:30N 31°16' E 121°32'38524781.0
2015-Sep-03 15:29N 37°41' E 121°17'380406.8
2015-Sep-03 14:33N 31°22' E 121°43'118024.3
2015-Sep-03 14:33N 31°16' E 121°32'3867932.5
2015-Sep-03 14:30N 37°41' E 121°17'380399.7
2015-Sep-03 13:33N 31°22' E 121°43'37822703.7
2015-Sep-03 13:32N 37°40' E 121°20'38411065.2
2015-Sep-03 13:30N 31°16' E 121°32'0 0.0
2015-Sep-03 12:33N 31°16' E 121°32'111337.0
2015-Sep-03 12:33N 31°22' E 121°43'37764693.5
2015-Sep-03 12:32N 37°39' E 121°24'1 1.4
2015-Sep-03 11:33N 37°37' E 121°24'376135347.6
2015-Sep-03 11:33N 31°22' E 121°43'221469.3
2015-Sep-03 11:32N 31°05' E 121°59'25617.1
2015-Sep-03 11:30N 31°16' E 121°32'1111.8
2015-Sep-03 10:33N 31°22' E 121°43'136562.4
2015-Sep-03 10:33N 31°11' E 121°50'166494.9
2015-Sep-03 10:33N 31°16' E 121°32'38418660.7
2015-Sep-03 10:32N 37°39' E 121°19'378388.7
2015-Sep-03 09:33N 31°22' E 121°43'111253.4
2015-Sep-03 09:33N 31°16' E 121°32'10777.4
2015-Sep-03 09:32N 31°17' E 121°44'5 4.9
2015-Sep-03 08:33N 31°22' E 121°43'51479.8
2015-Sep-03 08:33N 31°21' E 121°38'82463.7
2015-Sep-03 08:33N 31°16' E 121°32'1111.2
2015-Sep-03 07:33N 31°22' E 121°43'111055.5
2015-Sep-03 07:33N 31°16' E 121°32'1111.2
2015-Sep-03 06:33N 31°22' E 121°43'111146.0
2015-Sep-03 06:33N 31°16' E 121°32'1111.2
2015-Sep-03 05:33N 31°22' E 121°43'11194.7
2015-Sep-03 05:30N 31°16' E 121°32'1111.9
2015-Sep-03 04:33N 31°22' E 121°43'1198.1
2015-Sep-03 04:27N 31°16' E 121°32'1112.5
2015-Sep-03 03:33N 31°22' E 121°43'15431.6
2015-Sep-03 03:31N 31°21' E 121°26'860.1
2015-Sep-03 03:24N 31°16' E 121°32'1113.2
2015-Sep-03 02:33N 31°22' E 121°43'15267.3
2015-Sep-03 02:30N 31°21' E 121°26'81945.9
2015-Sep-03 02:30N 31°16' E 121°32'1111.9
2015-Sep-03 01:33N 31°22' E 121°43'11173.7
2015-Sep-03 01:30N 31°16' E 121°32'411307.7
2015-Sep-03 01:28N 31°46' E 121°00'4448.4
2015-Sep-03 00:33N 31°22' E 121°43'11703.9
2015-Sep-03 00:33N 31°16' E 121°32'41176.4
2015-Sep-03 00:19N 31°46' E 121°00'4458.0
2015-Sep-02 23:33N 31°22' E 121°43'11173.6
2015-Sep-02 23:30N 31°16' E 121°32'1111.9
2015-Sep-02 22:33N 31°22' E 121°43'11172.2
2015-Sep-02 22:30N 31°16' E 121°32'41177.3
2015-Sep-02 22:16N 31°46' E 121°00'4462.0
2015-Sep-02 21:33N 31°22' E 121°43'11691.5
2015-Sep-02 21:33N 31°16' E 121°32'41504.9
2015-Sep-02 21:28N 31°46' E 121°00'3561494.1
2015-Sep-02 21:13N 37°42' E 121°09'381572.8
2015-Sep-02 20:33N 31°22' E 121°43'11657.5
2015-Sep-02 20:32N 31°16' E 121°32'4184.1
2015-Sep-02 20:03N 31°46' E 121°00'4487.1
2015-Sep-02 19:33N 31°22' E 121°43'11729.3
2015-Sep-02 19:32N 31°16' E 121°32'3891185.7
2015-Sep-02 19:13N 37°44' E 121°15'35924379.0
2015-Sep-02 19:12N 31°46' E 121°00'4468.5
2015-Sep-02 18:33N 31°22' E 121°43'11598.6
2015-Sep-02 18:32N 31°16' E 121°32'41904.0
2015-Sep-02 18:30N 31°46' E 121°00'35842987.3
2015-Sep-02 18:29N 37°43' E 121°18'382412.1
2015-Sep-02 17:33N 31°22' E 121°43'38127459.0
2015-Sep-02 17:33N 37°43' E 121°23'3877041.0
2015-Sep-02 17:29N 31°16' E 121°32'1112.0
2015-Sep-02 16:33N 31°22' E 121°43'11199.5
2015-Sep-02 16:30N 31°16' E 121°32'3882769.3
2015-Sep-02 16:22N 37°44' E 121°18'383475.9
2015-Sep-02 15:33N 31°22' E 121°43'38217845.6
2015-Sep-02 15:32N 37°43' E 121°21'38810731.8
2015-Sep-02 15:30N 31°16' E 121°32'1111.8
2015-Sep-02 14:33N 31°22' E 121°43'443938.9
2015-Sep-02 14:33N 31°46' E 121°00'411807.8
2015-Sep-02 14:31N 31°16' E 121°32'38446093.0
2015-Sep-02 14:31N 37°40' E 121°21'2 2.0
2015-Sep-02 13:33N 37°38' E 121°23'37715777.6
2015-Sep-02 13:32N 31°22' E 121°43'111179.7
2015-Sep-02 13:31N 31°16' E 121°32'1111.6
2015-Sep-02 12:33N 31°22' E 121°43'37584384.5
2015-Sep-02 12:33N 37°36' E 121°26'38111241.8
2015-Sep-02 12:31N 31°16' E 121°32'1111.6
2015-Sep-02 11:33N 31°22' E 121°43'37730814.6
2015-Sep-02 11:33N 37°38' E 121°23'3824971.1
2015-Sep-02 11:28N 31°16' E 121°32'1112.2
2015-Sep-02 10:33N 31°22' E 121°43'11288.6
2015-Sep-02 10:31N 31°16' E 121°32'38412692.2
2015-Sep-02 10:29N 37°40' E 121°18'379407.6
2015-Sep-02 09:33N 31°22' E 121°43'11267.4
2015-Sep-02 09:31N 31°16' E 121°32'1111.6
2015-Sep-02 08:33N 31°22' E 121°43'1178.3
2015-Sep-02 08:25N 31°16' E 121°32'1112.9
2015-Sep-02 07:33N 31°22' E 121°43'1146.3
2015-Sep-02 07:19N 31°16' E 121°32'1114.7
2015-Sep-02 06:33N 31°22' E 121°43'11253.9
2015-Sep-02 06:31N 31°16' E 121°32'1111.6
2015-Sep-02 05:33N 31°22' E 121°43'11280.8
2015-Sep-02 05:31N 31°16' E 121°32'1111.7
2015-Sep-02 04:33N 31°22' E 121°43'11240.0
2015-Sep-02 04:31N 31°16' E 121°32'41460.4
2015-Sep-02 04:25N 31°46' E 121°00'4450.6
2015-Sep-02 03:33N 31°22' E 121°43'441071.8
2015-Sep-02 03:31N 31°46' E 121°00'415861.1
2015-Sep-02 03:31N 31°16' E 121°32'1111.5
2015-Sep-02 02:33N 31°22' E 121°43'441382.2
2015-Sep-02 02:31N 31°46' E 121°00'416978.3
2015-Sep-02 02:31N 31°16' E 121°32'1111.7
2015-Sep-02 01:33N 31°22' E 121°43'441101.9
2015-Sep-02 01:31N 31°46' E 121°00'41367.3
2015-Sep-02 01:24N 31°16' E 121°32'1113.0
2015-Sep-02 00:33N 31°22' E 121°43'11234.9
2015-Sep-02 00:30N 31°16' E 121°32'41456.5
2015-Sep-02 00:25N 31°46' E 121°00'4451.0
2015-Sep-01 23:33N 31°22' E 121°43'113328.7
2015-Sep-01 23:33N 31°16' E 121°32'41927.5
2015-Sep-01 23:31N 31°46' E 121°00'4142.5
2015-Sep-01 22:33N 31°16' E 121°32'111664.3
2015-Sep-01 22:33N 31°22' E 121°43'441370.2
2015-Sep-01 22:31N 31°46' E 121°00'4445.7
2015-Sep-01 21:33N 31°22' E 121°43'6679753.8
2015-Sep-01 21:33N 32°00' E 120°40'6315214.4
2015-Sep-01 21:33N 31°16' E 121°32'411039.3
2015-Sep-01 21:31N 31°46' E 121°00'0 0.0
2015-Sep-01 20:34N 31°46' E 121°00'4452518.9
2015-Sep-01 20:33N 31°22' E 121°43'111664.3
2015-Sep-01 20:33N 31°16' E 121°32'59106800.7
2015-Sep-01 20:33N 32°01' E 120°47'1918.9
2015-Sep-01 19:34N 31°46' E 121°00'4439389.2
2015-Sep-01 19:33N 31°22' E 121°43'558277.8
2015-Sep-01 19:33N 31°56' E 120°52'5347584.5
2015-Sep-01 19:33N 31°16' E 121°32'1111.2
2015-Sep-01 18:33N 31°22' E 121°43'111902.1
2015-Sep-01 18:33N 31°16' E 121°32'451426.9
2015-Sep-01 18:31N 31°48' E 120°56'5443.1
2015-Sep-01 18:30N 31°46' E 121°00'356909.4
2015-Sep-01 18:07N 37°42' E 121°09'381682.7
2015-Sep-01 17:33N 31°22' E 121°43'111079.6
2015-Sep-01 17:33N 31°16' E 121°32'411101.8
2015-Sep-01 17:31N 31°46' E 121°00'35734737.8
2015-Sep-01 17:30N 37°42' E 121°15'8 8.5
2015-Sep-01 16:33N 37°44' E 121°25'3834564.2
2015-Sep-01 16:28N 31°22' E 121°43'44736.2
2015-Sep-01 16:25N 31°46' E 121°00'41190.6
2015-Sep-01 16:12N 31°16' E 121°32'1117.4
2015-Sep-01 15:33N 31°22' E 121°43'38357482.2
2015-Sep-01 15:33N 37°45' E 121°25'3897004.4
2015-Sep-01 15:30N 31°16' E 121°32'1111.8
2015-Sep-01 14:33N 31°22' E 121°43'11665.7
2015-Sep-01 14:32N 31°16' E 121°32'39025044.1
2015-Sep-01 14:32N 37°45' E 121°25'384395.3
2015-Sep-01 13:33N 31°22' E 121°43'11170.7
2015-Sep-01 13:29N 31°16' E 121°32'3913645.0
2015-Sep-01 13:23N 37°46' E 121°20'385460.5
2015-Sep-01 12:33N 31°22' E 121°43'38528290.7
2015-Sep-01 12:32N 37°46' E 121°20'3911996.0
2015-Sep-01 12:20N 31°16' E 121°32'1114.2
2015-Sep-01 11:33N 31°22' E 121°43'3856045.1
2015-Sep-01 11:30N 37°46' E 121°24'39073976.0
2015-Sep-01 11:29N 31°16' E 121°32'23109.9
2015-Sep-01 11:17N 31°35' E 121°19'2 3.5
2015-Sep-01 10:33N 31°33' E 121°21'2018363.9
2015-Sep-01 10:33N 31°16' E 121°32'111997.2
2015-Sep-01 10:33N 31°22' E 121°43'44966.7
2015-Sep-01 10:30N 31°46' E 121°00'4446.3
2015-Sep-01 09:33N 31°22' E 121°43'9502.5
2015-Sep-01 09:32N 31°19' E 121°33'13733.1
2015-Sep-01 09:31N 31°31' E 121°25'26214.1
2015-Sep-01 09:24N 31°46' E 121°00'4451.9
2015-Sep-01 08:33N 31°22' E 121°43'933377.9
2015-Sep-01 08:33N 31°24' E 121°33'310.2
2015-Sep-01 08:16N 31°26' E 121°30'1216.2
2015-Sep-01 07:33N 31°20' E 121°42'2388.8
2015-Sep-01 07:33N 31°22' E 121°43'11911.2
2015-Sep-01 07:32N 31°22' E 121°30'1111.6
2015-Sep-01 06:33N 31°22' E 121°43'112596.0
2015-Sep-01 06:33N 31°21' E 121°31'1717.2
2015-Sep-01 05:33N 31°35' E 121°18'2522674.0
2015-Sep-01 05:33N 31°22' E 121°43'1189.1
2015-Sep-01 05:26N 31°21' E 121°31'0 0.0
2015-Sep-01 04:33N 31°21' E 121°31'11927.1
2015-Sep-01 04:33N 31°22' E 121°43'14394.8
2015-Sep-01 04:30N 31°27' E 121°28'1414.8
2015-Sep-01 03:34N 31°22' E 121°43'4307.8
2015-Sep-01 03:33N 31°22' E 121°39'71625.9
2015-Sep-01 03:33N 31°21' E 121°31'1111.0
2015-Sep-01 02:33N 31°22' E 121°43'95205.7
2015-Sep-01 02:33N 31°14' E 121°48'16728.0
2015-Sep-01 02:32N 31°21' E 121°31'1111.0
2015-Sep-01 01:33N 31°22' E 121°43'181345.4
2015-Sep-01 01:33N 31°08' E 121°56'2510176.1
2015-Sep-01 01:33N 31°21' E 121°31'5252.7
2015-Sep-01 00:34N 31°59' E 120°49'59106876.5
2015-Sep-01 00:33N 31°22' E 121°43'11503.3
2015-Sep-01 00:32N 31°21' E 121°31'1111.0
2015-Aug-31 23:33N 31°22' E 121°43'112333.1
2015-Aug-31 23:33N 31°22' E 121°30'1111.0
2015-Aug-31 22:33N 31°22' E 121°43'11592.0
2015-Aug-31 22:32N 31°22' E 121°30'3811077.0
2015-Aug-31 22:11N 37°42' E 121°09'381606.1
2015-Aug-31 21:33N 31°22' E 121°43'111586.5
2015-Aug-31 21:33N 31°22' E 121°30'3849866.7
2015-Aug-31 21:31N 37°45' E 121°16'384400.2
2015-Aug-31 20:33N 31°22' E 121°43'11161.9
2015-Aug-31 20:29N 31°22' E 121°30'1111.9
2015-Aug-31 19:33N 31°22' E 121°43'11343.3
2015-Aug-31 19:32N 31°22' E 121°30'4211065.4
2015-Aug-31 19:08N 24°47' E 118°46'425734.4
2015-Aug-31 18:33N 31°22' E 121°43'11692.7
2015-Aug-31 18:32N 31°21' E 121°30'38915908.0
2015-Aug-31 18:31N 37°50' E 121°22'358798.6
2015-Aug-31 18:04N 31°57' E 120°17'82160.0
2015-Aug-31 17:33N 31°22' E 121°43'11369.0
2015-Aug-31 17:32N 31°21' E 121°30'3881472.5
2015-Aug-31 17:16N 37°50' E 121°28'394556.6
2015-Aug-31 16:33N 31°16' E 121°45'61103.6
2015-Aug-31 16:33N 31°22' E 121°43'11147.9
2015-Aug-31 16:29N 31°21' E 121°30'1111.9
2015-Aug-31 15:33N 31°22' E 121°43'116580.1
2015-Aug-31 15:33N 31°21' E 121°30'219502.7
2015-Aug-31 15:33N 31°11' E 121°52'1313.3
2015-Aug-31 14:33N 31°22' E 121°43'111101.7
2015-Aug-31 14:33N 31°22' E 121°30'27231.1
2015-Aug-31 14:26N 31°07' E 121°57'5 6.0
2015-Aug-31 13:34N 31°04' E 122°02'246564.6
2015-Aug-31 13:33N 31°22' E 121°43'117932.2
2015-Aug-31 13:33N 31°22' E 121°30'1111.0
2015-Aug-31 12:33N 31°22' E 121°43'42518423.2
2015-Aug-31 12:32N 24°47' E 118°46'4214069.6
2015-Aug-31 12:26N 31°22' E 121°30'0 0.0
2015-Aug-31 11:33N 31°22' E 121°30'113050.8
2015-Aug-31 11:33N 31°22' E 121°43'0 0.0
2015-Aug-31 10:33N 31°22' E 121°43'111071.9
2015-Aug-31 10:32N 31°22' E 121°30'1111.3
2015-Aug-31 09:33N 31°22' E 121°43'11408.9
2015-Aug-31 09:32N 31°22' E 121°30'1111.3
2015-Aug-31 08:33N 31°22' E 121°43'11154.3
2015-Aug-31 08:29N 31°22' E 121°30'1111.8
2015-Aug-31 07:33N 31°22' E 121°43'11323.5
2015-Aug-31 07:31N 31°22' E 121°30'1111.7
2015-Aug-31 06:33N 31°22' E 121°43'12657.7
2015-Aug-31 06:32N 31°25' E 121°30'1212.4
2015-Aug-31 05:33N 31°22' E 121°43'13628.9
2015-Aug-31 05:32N 31°26' E 121°28'1313.6
2015-Aug-31 04:34N 31°22' E 121°43'131291.7
2015-Aug-31 04:33N 31°26' E 121°28'53141.1
2015-Aug-31 04:10N 32°03' E 120°45'0 0.0
2015-Aug-31 03:31N 32°03' E 120°45'53204.8
2015-Aug-31 03:16N 31°26' E 121°28'0 0.0
2015-Aug-31 02:33N 31°26' E 121°28'13200.8
2015-Aug-31 02:29N 31°22' E 121°43'651179.3
2015-Aug-31 02:26N 32°04' E 120°45'6573.4
2015-Aug-31 01:33N 31°22' E 121°43'13109.4
2015-Aug-31 01:26N 31°26' E 121°28'1315.5
2015-Aug-31 00:33N 31°22' E 121°43'0 0.0
2015-Aug-30 23:33N 31°22' E 121°43'133718.2
2015-Aug-30 23:33N 31°26' E 121°28'939884.8
2015-Aug-30 23:33N 29°57' E 122°04'8687.3
2015-Aug-30 22:33N 31°22' E 121°43'13315.9
2015-Aug-30 22:31N 31°26' E 121°28'1314.0
2015-Aug-30 21:33N 31°22' E 121°43'133982.6
2015-Aug-30 21:33N 31°26' E 121°28'1313.3
2015-Aug-30 20:33N 31°22' E 121°43'13181.7
2015-Aug-30 20:29N 31°26' E 121°28'1314.4
2015-Aug-30 19:33N 31°22' E 121°43'131493.5
2015-Aug-30 19:33N 31°26' E 121°28'1313.4
2015-Aug-30 18:33N 31°22' E 121°43'131593.1
2015-Aug-30 18:33N 31°26' E 121°28'1313.4
2015-Aug-30 17:33N 31°22' E 121°43'13247.7
2015-Aug-30 17:30N 31°26' E 121°28'1314.0
2015-Aug-30 16:33N 31°22' E 121°43'133414.2
2015-Aug-30 16:33N 31°26' E 121°28'1313.1
2015-Aug-30 15:32N 31°22' E 121°43'131448.4
2015-Aug-30 15:32N 31°26' E 121°28'1313.6
2015-Aug-30 14:33N 31°22' E 121°43'13770.8
2015-Aug-30 14:32N 31°26' E 121°28'0 0.0
2015-Aug-30 13:33N 31°26' E 121°28'13408.5
2015-Aug-30 13:31N 31°22' E 121°43'0 0.0
2015-Aug-30 12:33N 31°22' E 121°43'1311947.9
2015-Aug-30 12:33N 31°26' E 121°28'1313.3
2015-Aug-30 11:33N 31°22' E 121°43'1311947.9
2015-Aug-30 11:33N 31°26' E 121°28'1313.3
2015-Aug-30 10:33N 31°22' E 121°43'131448.2
2015-Aug-30 10:33N 31°26' E 121°28'1313.4
2015-Aug-30 09:33N 31°22' E 121°43'132172.3
2015-Aug-30 09:33N 31°26' E 121°28'1313.4
2015-Aug-30 08:33N 31°22' E 121°43'131493.5
2015-Aug-30 08:33N 31°26' E 121°28'0 0.0
2015-Aug-30 07:34N 31°26' E 121°28'1323899.1
2015-Aug-30 07:34N 31°22' E 121°43'0 0.0
2015-Aug-30 06:34N 31°22' E 121°43'13853.4
2015-Aug-30 06:33N 31°26' E 121°28'1313.5
2015-Aug-30 05:34N 31°22' E 121°43'13620.8
2015-Aug-30 05:32N 31°26' E 121°28'1313.6
2015-Aug-30 04:34N 31°22' E 121°43'132811.7
2015-Aug-30 04:33N 31°26' E 121°28'1313.3
2015-Aug-30 03:33N 31°22' E 121°43'13612.8
2015-Aug-30 03:32N 31°26' E 121°28'1313.6
2015-Aug-30 02:33N 31°22' E 121°43'13713.3
2015-Aug-30 02:32N 31°26' E 121°28'1313.5
2015-Aug-30 01:33N 31°22' E 121°43'13193.2
2015-Aug-30 01:29N 31°26' E 121°29'1313.9
2015-Aug-30 00:33N 31°22' E 121°43'11420.5
2015-Aug-30 00:32N 31°24' E 121°31'1110.9
2015-Aug-29 23:34N 31°22' E 121°43'11275.3
2015-Aug-29 23:31N 31°24' E 121°31'1111.0
2015-Aug-29 22:33N 31°22' E 121°43'11184.5
2015-Aug-29 22:30N 31°24' E 121°31'1111.4
2015-Aug-29 21:33N 31°22' E 121°43'0 0.0
2015-Aug-29 20:33N 31°22' E 121°43'0 0.0
2015-Aug-29 19:33N 31°22' E 121°43'0 0.0
2015-Aug-29 18:33N 31°22' E 121°43'0 0.0
2015-Aug-29 17:33N 31°22' E 121°43'0 0.0
2015-Aug-29 16:33N 31°22' E 121°43'0 0.0
2015-Aug-29 15:33N 31°22' E 121°43'0 0.0
2015-Aug-29 14:30N 31°22' E 121°43'0 0.0
2015-Aug-29 13:33N 31°22' E 121°43'0 0.0
2015-Aug-29 12:34N 31°22' E 121°43'0 0.0
2015-Aug-29 11:33N 31°22' E 121°43'0 0.0
2015-Aug-29 10:33N 31°22' E 121°43'24363.9
2015-Aug-29 10:29N 31°01' E 121°29'2425.5
2015-Aug-29 09:33N 31°22' E 121°43'8 8.5
2015-Aug-29 08:33N 31°24' E 121°33'30109188.7
2015-Aug-29 08:33N 30°58' E 121°15'3330.9
2015-Aug-29 07:29N 31°29' E 121°26'6 6.5
2015-Aug-29 06:33N 31°34' E 121°22'4 4.1
2015-Aug-29 05:34N 31°39' E 121°21'0 0.0
2015-Aug-29 04:33N 31°39' E 121°21'42116.4
2015-Aug-29 04:12N 30°57' E 121°12'4266.6
2015-Aug-29 03:34N 31°39' E 121°21'0 0.0
2015-Aug-29 02:33N 31°39' E 121°21'0 0.0
2015-Aug-29 01:33N 31°39' E 121°21'0 0.0
2015-Aug-29 00:33N 31°39' E 121°21'0 0.0
2015-Aug-28 23:33N 31°39' E 121°21'0 0.0
2015-Aug-28 22:34N 31°39' E 121°21'0 0.0
2015-Aug-28 21:33N 31°39' E 121°21'0 0.0
2015-Aug-28 20:33N 31°39' E 121°21'0 0.0
2015-Aug-28 19:33N 31°39' E 121°21'0 0.0
2015-Aug-28 18:33N 31°39' E 121°21'0 0.0
2015-Aug-28 17:33N 31°39' E 121°21'0 0.0
2015-Aug-28 16:33N 31°39' E 121°21'0 0.0
2015-Aug-28 15:33N 31°39' E 121°21'0 0.0
2015-Aug-28 14:33N 31°39' E 121°21'0 0.0
2015-Aug-28 13:33N 31°39' E 121°21'0 0.0
2015-Aug-28 12:33N 31°39' E 121°21'0 0.0
2015-Aug-28 11:33N 31°39' E 121°21'0 0.0
2015-Aug-28 10:33N 31°39' E 121°21'0 0.0
2015-Aug-28 09:33N 31°39' E 121°21'0 0.0
2015-Aug-28 08:33N 31°39' E 121°21'0 0.0
2015-Aug-28 07:33N 31°39' E 121°21'111 6.9
2015-Aug-27 15:27N 29°55' E 122°07'8 7.8
2015-Aug-27 14:23N 30°01' E 121°60'9576.9
2015-Aug-27 13:09N 31°31' E 121°25'6281.7
2015-Aug-27 13:08N 31°26' E 121°29'1 2.0
2015-Aug-27 12:32N 31°27' E 121°29'8 7.6
2015-Aug-27 11:33N 31°23' E 121°36'6 6.0
2015-Aug-27 10:33N 31°22' E 121°43'0 0.0
2015-Aug-27 09:33N 31°22' E 121°43'0 0.0
2015-Aug-27 08:33N 31°22' E 121°43'0 0.1
2015-Aug-27 07:33N 31°22' E 121°43'37320.6
2015-Aug-27 07:26N 30°59' E 121°08'3742.3
2015-Aug-27 06:33N 31°22' E 121°43'36774.7
2015-Aug-27 06:31N 30°57' E 121°12'4 4.4
2015-Aug-27 05:33N 30°57' E 121°17'3359683.0
2015-Aug-27 05:33N 31°22' E 121°43'44135.3
2015-Aug-27 05:14N 31°46' E 121°00'4464.8
2015-Aug-27 04:33N 31°22' E 121°43'282046.7
2015-Aug-27 04:32N 30°59' E 121°23'5022569.7
2015-Aug-27 04:32N 31°46' E 121°00'69212.5
2015-Aug-27 04:13N 31°03' E 122°04'2639.3
2015-Aug-27 03:33N 31°22' E 121°43'211061.7
2015-Aug-27 03:32N 31°05' E 121°59'6410500.9
2015-Aug-27 03:32N 31°46' E 121°00'4444.9
2015-Aug-27 02:33N 31°22' E 121°43'1513599.9
2015-Aug-27 02:33N 31°09' E 121°53'1515.2
2015-Aug-27 01:33N 31°22' E 121°43'12242.0
2015-Aug-27 01:31N 31°11' E 121°49'54237.8
2015-Aug-27 01:17N 31°46' E 121°00'5475.2
2015-Aug-27 00:34N 31°11' E 121°49'123007.9
2015-Aug-27 00:33N 31°22' E 121°43'44195.8
2015-Aug-27 00:20N 31°46' E 121°00'4456.8
2015-Aug-26 23:33N 31°22' E 121°43'978.4
2015-Aug-26 23:27N 31°20' E 121°33'38331.7
2015-Aug-26 23:20N 31°46' E 121°00'5470.3
2015-Aug-26 22:33N 31°11' E 121°50'126024.7
2015-Aug-26 22:33N 31°22' E 121°43'121070.0
2015-Aug-26 22:33N 31°22' E 121°30'1414.0
2015-Aug-26 21:33N 31°17' E 121°45'53749.7
2015-Aug-26 21:33N 31°22' E 121°43'124728.5
2015-Aug-26 21:33N 31°25' E 121°30'6 6.3
2015-Aug-26 20:33N 31°22' E 121°37'39216.9
2015-Aug-26 20:23N 31°46' E 121°00'3643.3
2015-Aug-26 19:33N 31°21' E 121°31'114287.6
2015-Aug-26 19:33N 31°22' E 121°43'241487.1
2015-Aug-26 19:32N 31°34' E 121°19'2063.6
2015-Aug-26 19:14N 31°46' E 121°00'4463.6
2015-Aug-26 18:32N 31°22' E 121°43'444154.6
2015-Aug-26 18:32N 31°46' E 121°00'37133958.8
2015-Aug-26 18:32N 31°20' E 121°32'10 9.8
2015-Aug-26 17:33N 31°22' E 121°43'441629.2
2015-Aug-26 17:32N 31°46' E 121°00'37694.1
2015-Aug-26 17:29N 31°20' E 121°32'910.3
2015-Aug-26 16:33N 31°22' E 121°43'9126.1
2015-Aug-26 16:29N 31°20' E 121°32'910.2
2015-Aug-26 15:33N 31°22' E 121°43'9127.8
2015-Aug-26 15:29N 31°20' E 121°32'910.2
2015-Aug-26 14:33N 31°22' E 121°43'971.0
2015-Aug-26 14:25N 31°20' E 121°32'910.9
2015-Aug-26 13:33N 31°22' E 121°43'9260.6
2015-Aug-26 13:31N 31°20' E 121°32'1919.8
2015-Aug-26 12:33N 31°35' E 121°18'2513006.8
2015-Aug-26 12:33N 31°22' E 121°43'9271.0
2015-Aug-26 12:31N 31°20' E 121°32'9 9.8
2015-Aug-26 11:33N 31°22' E 121°43'91555.6
2015-Aug-26 11:33N 31°20' E 121°33'954.7
2015-Aug-26 11:23N 31°28' E 121°28'1517.8
2015-Aug-26 10:33N 31°22' E 121°43'141795.7
2015-Aug-26 10:33N 31°14' E 121°29'1046.7
2015-Aug-26 10:20N 31°23' E 121°37'6 7.2
2015-Aug-26 09:33N 31°22' E 121°43'353.7
2015-Aug-26 09:30N 31°18' E 121°43'3 3.6
2015-Aug-26 08:33N 31°22' E 121°43'102093.4
2015-Aug-26 08:33N 31°13' E 121°49'1616.3
2015-Aug-26 07:33N 31°23' E 121°35'24461.5
2015-Aug-26 07:30N 31°07' E 121°57'2424.2
2015-Aug-26 06:30N 31°20' E 121°33'7 7.5
2015-Aug-26 05:32N 31°14' E 121°30'5 4.4
2015-Aug-26 04:28N 31°17' E 121°34'10100.0
2015-Aug-26 04:22N 31°08' E 121°27'4 4.7
2015-Aug-26 03:33N 31°05' E 121°28'13207.0
2015-Aug-26 03:29N 31°17' E 121°34'1717.9
2015-Aug-26 02:33N 31°01' E 121°28'17141.7
2015-Aug-26 02:26N 31°17' E 121°34'  
Track history (hours):
 
Tides and Currents Weather Stations Pressure Air Temp Water Temp Dewpoint Dewpoint Depression Visibility Wind Speed Wind Dir Waves Ship Positions

Spaceon02064

Last reported at 2015-Sep-04 18:33 UTC. Time now 2015-Sep-04 18:49 UTC.
Position N 31°22' E 121°43'.

Length 6 m.

Type: Ship. MMSI: 200902064.

Date/timePositionNaut miles runAvg speedWind from/ knotsBaromVisibWave heightAir tempDewpointWater temp
2015-Sep-04 18:33N 31°22' E 121°43'38050678.0
2015-Sep-04 18:33N 37°41' E 121°15'380380.1
2015-Sep-04 17:33N 31°22' E 121°43'37846921.9
2015-Sep-04 17:32N 37°39' E 121°19'378384.3
2015-Sep-04 16:33N 31°22' E 121°43'377678523.6
2015-Sep-04 16:33N 37°38' E 121°23'377376.0
2015-Sep-04 15:33N 31°22' E 121°43'37764582.9
2015-Sep-04 15:33N 37°38' E 121°22'377380.1
2015-Sep-04 14:33N 31°22' E 121°43'37732323.5
2015-Sep-04 14:33N 37°38' E 121°22'377380.5
2015-Sep-04 13:33N 31°22' E 121°43'377339412.9
2015-Sep-04 13:33N 37°38' E 121°22'377377.6
2015-Sep-04 12:33N 31°22' E 121°43'376675992.4
2015-Sep-04 12:33N 37°37' E 121°25'2 2.0
2015-Sep-04 11:33N 37°38' E 121°23'376169348.1
2015-Sep-04 11:33N 31°22' E 121°43'2323.6
2015-Sep-04 10:33N 31°04' E 122°01'235630.4
2015-Sep-04 10:33N 31°22' E 121°43'3781361260.3
2015-Sep-04 10:33N 37°39' E 121°19'392393.7
2015-Sep-04 09:33N 31°08' E 121°54'1659390.1
2015-Sep-04 09:33N 31°22' E 121°43'3814398.3
2015-Sep-04 09:28N 37°42' E 121°13'391428.0
2015-Sep-04 08:33N 31°12' E 121°49'117929.7
2015-Sep-04 08:33N 31°22' E 121°43'0 0.0
2015-Sep-04 07:33N 31°22' E 121°43'92401.8
2015-Sep-04 07:33N 31°13' E 121°48'9 9.4
2015-Sep-04 06:33N 31°22' E 121°43'92588.1
2015-Sep-04 06:33N 31°13' E 121°48'9 9.4
2015-Sep-04 05:33N 31°22' E 121°43'81808.3
2015-Sep-04 05:33N 31°14' E 121°47'5 5.1
2015-Sep-04 04:33N 31°18' E 121°43'43180.6
2015-Sep-04 04:33N 31°22' E 121°43'0 0.0
2015-Sep-04 03:33N 31°22' E 121°43'71728.1
2015-Sep-04 03:33N 31°23' E 121°36'7 6.7
2015-Sep-04 02:33N 31°22' E 121°43'1847.3
2015-Sep-04 02:10N 31°29' E 121°24'1219.4
2015-Sep-04 01:33N 31°20' E 121°32'93784.2
2015-Sep-04 01:33N 31°22' E 121°43'23100.5
2015-Sep-04 01:19N 31°33' E 121°20'2330.0
2015-Sep-04 00:33N 31°22' E 121°43'96780.2
2015-Sep-04 00:33N 31°20' E 121°32'9 9.5
2015-Sep-03 23:34N 31°22' E 121°43'101873.9
2015-Sep-03 23:33N 31°16' E 121°33'1010.4
2015-Sep-03 22:33N 31°22' E 121°43'11116.3
2015-Sep-03 22:28N 31°16' E 121°32'1112.3
2015-Sep-03 21:33N 31°22' E 121°43'11262.2
2015-Sep-03 21:31N 31°16' E 121°32'38824082.4
2015-Sep-03 21:30N 37°43' E 121°10'382403.8
2015-Sep-03 20:33N 31°22' E 121°43'3826198.9
2015-Sep-03 20:29N 37°43' E 121°12'38814397.4
2015-Sep-03 20:28N 31°16' E 121°32'0 0.0
2015-Sep-03 19:34N 31°16' E 121°32'116684.9
2015-Sep-03 19:33N 31°22' E 121°43'3832051.0
2015-Sep-03 19:22N 37°44' E 121°13'383470.6
2015-Sep-03 18:33N 31°22' E 121°43'1140109.4
2015-Sep-03 18:33N 31°16' E 121°32'3871699.0
2015-Sep-03 18:20N 37°43' E 121°15'382494.7
2015-Sep-03 17:33N 31°22' E 121°43'11216.8
2015-Sep-03 17:30N 31°16' E 121°32'38710813.6
2015-Sep-03 17:28N 37°43' E 121°12'382418.4
2015-Sep-03 16:33N 31°22' E 121°43'113342.4
2015-Sep-03 16:33N 31°16' E 121°32'386463325.9
2015-Sep-03 16:33N 37°41' E 121°16'380379.7
2015-Sep-03 15:33N 31°22' E 121°43'11231.8
2015-Sep-03 15:30N 31°16' E 121°32'38524781.0
2015-Sep-03 15:29N 37°41' E 121°17'380406.8
2015-Sep-03 14:33N 31°22' E 121°43'118024.3
2015-Sep-03 14:33N 31°16' E 121°32'3867932.5
2015-Sep-03 14:30N 37°41' E 121°17'380399.7
2015-Sep-03 13:33N 31°22' E 121°43'37822703.7
2015-Sep-03 13:32N 37°40' E 121°20'38411065.2
2015-Sep-03 13:30N 31°16' E 121°32'0 0.0
2015-Sep-03 12:33N 31°16' E 121°32'111337.0
2015-Sep-03 12:33N 31°22' E 121°43'37764693.5
2015-Sep-03 12:32N 37°39' E 121°24'1 1.4
2015-Sep-03 11:33N 37°37' E 121°24'376135347.6
2015-Sep-03 11:33N 31°22' E 121°43'221469.3
2015-Sep-03 11:32N 31°05' E 121°59'25617.1
2015-Sep-03 11:30N 31°16' E 121°32'1111.8
2015-Sep-03 10:33N 31°22' E 121°43'136562.4
2015-Sep-03 10:33N 31°11' E 121°50'166494.9
2015-Sep-03 10:33N 31°16' E 121°32'38418660.7
2015-Sep-03 10:32N 37°39' E 121°19'378388.7
2015-Sep-03 09:33N 31°22' E 121°43'111253.4
2015-Sep-03 09:33N 31°16' E 121°32'10777.4
2015-Sep-03 09:32N 31°17' E 121°44'5 4.9
2015-Sep-03 08:33N 31°22' E 121°43'51479.8
2015-Sep-03 08:33N 31°21' E 121°38'82463.7
2015-Sep-03 08:33N 31°16' E 121°32'1111.2
2015-Sep-03 07:33N 31°22' E 121°43'111055.5
2015-Sep-03 07:33N 31°16' E 121°32'1111.2
2015-Sep-03 06:33N 31°22' E 121°43'111146.0
2015-Sep-03 06:33N 31°16' E 121°32'1111.2
2015-Sep-03 05:33N 31°22' E 121°43'11194.7
2015-Sep-03 05:30N 31°16' E 121°32'1111.9
2015-Sep-03 04:33N 31°22' E 121°43'1198.1
2015-Sep-03 04:27N 31°16' E 121°32'1112.5
2015-Sep-03 03:33N 31°22' E 121°43'15431.6
2015-Sep-03 03:31N 31°21' E 121°26'860.1
2015-Sep-03 03:24N 31°16' E 121°32'1113.2
2015-Sep-03 02:33N 31°22' E 121°43'15267.3
2015-Sep-03 02:30N 31°21' E 121°26'81945.9
2015-Sep-03 02:30N 31°16' E 121°32'1111.9
2015-Sep-03 01:33N 31°22' E 121°43'11173.7
2015-Sep-03 01:30N 31°16' E 121°32'411307.7
2015-Sep-03 01:28N 31°46' E 121°00'4448.4
2015-Sep-03 00:33N 31°22' E 121°43'11703.9
2015-Sep-03 00:33N 31°16' E 121°32'41176.4
2015-Sep-03 00:19N 31°46' E 121°00'4458.0
2015-Sep-02 23:33N 31°22' E 121°43'11173.6
2015-Sep-02 23:30N 31°16' E 121°32'1111.9
2015-Sep-02 22:33N 31°22' E 121°43'11172.2
2015-Sep-02 22:30N 31°16' E 121°32'41177.3
2015-Sep-02 22:16N 31°46' E 121°00'4462.0
2015-Sep-02 21:33N 31°22' E 121°43'11691.5
2015-Sep-02 21:33N 31°16' E 121°32'41504.9
2015-Sep-02 21:28N 31°46' E 121°00'3561494.1
2015-Sep-02 21:13N 37°42' E 121°09'381572.8
2015-Sep-02 20:33N 31°22' E 121°43'11657.5
2015-Sep-02 20:32N 31°16' E 121°32'4184.1
2015-Sep-02 20:03N 31°46' E 121°00'4487.1
2015-Sep-02 19:33N 31°22' E 121°43'11729.3
2015-Sep-02 19:32N 31°16' E 121°32'3891185.7
2015-Sep-02 19:13N 37°44' E 121°15'35924379.0
2015-Sep-02 19:12N 31°46' E 121°00'4468.5
2015-Sep-02 18:33N 31°22' E 121°43'11598.6
2015-Sep-02 18:32N 31°16' E 121°32'41904.0
2015-Sep-02 18:30N 31°46' E 121°00'35842987.3
2015-Sep-02 18:29N 37°43' E 121°18'382412.1
2015-Sep-02 17:33N 31°22' E 121°43'38127459.0
2015-Sep-02 17:33N 37°43' E 121°23'3877041.0
2015-Sep-02 17:29N 31°16' E 121°32'1112.0
2015-Sep-02 16:33N 31°22' E 121°43'11199.5
2015-Sep-02 16:30N 31°16' E 121°32'3882769.3
2015-Sep-02 16:22N 37°44' E 121°18'383475.9
2015-Sep-02 15:33N 31°22' E 121°43'38217845.6
2015-Sep-02 15:32N 37°43' E 121°21'38810731.8
2015-Sep-02 15:30N 31°16' E 121°32'1111.8
2015-Sep-02 14:33N 31°22' E 121°43'443938.9
2015-Sep-02 14:33N 31°46' E 121°00'411807.8
2015-Sep-02 14:31N 31°16' E 121°32'38446093.0
2015-Sep-02 14:31N 37°40' E 121°21'2 2.0
2015-Sep-02 13:33N 37°38' E 121°23'37715777.6
2015-Sep-02 13:32N 31°22' E 121°43'111179.7
2015-Sep-02 13:31N 31°16' E 121°32'1111.6
2015-Sep-02 12:33N 31°22' E 121°43'37584384.5
2015-Sep-02 12:33N 37°36' E 121°26'38111241.8
2015-Sep-02 12:31N 31°16' E 121°32'1111.6
2015-Sep-02 11:33N 31°22' E 121°43'37730814.6
2015-Sep-02 11:33N 37°38' E 121°23'3824971.1
2015-Sep-02 11:28N 31°16' E 121°32'1112.2
2015-Sep-02 10:33N 31°22' E 121°43'11288.6
2015-Sep-02 10:31N 31°16' E 121°32'38412692.2
2015-Sep-02 10:29N 37°40' E 121°18'379407.6
2015-Sep-02 09:33N 31°22' E 121°43'11267.4
2015-Sep-02 09:31N 31°16' E 121°32'1111.6
2015-Sep-02 08:33N 31°22' E 121°43'1178.3
2015-Sep-02 08:25N 31°16' E 121°32'1112.9
2015-Sep-02 07:33N 31°22' E 121°43'1146.3
2015-Sep-02 07:19N 31°16' E 121°32'1114.7
2015-Sep-02 06:33N 31°22' E 121°43'11253.9
2015-Sep-02 06:31N 31°16' E 121°32'1111.6
2015-Sep-02 05:33N 31°22' E 121°43'11280.8
2015-Sep-02 05:31N 31°16' E 121°32'1111.7
2015-Sep-02 04:33N 31°22' E 121°43'11240.0
2015-Sep-02 04:31N 31°16' E 121°32'41460.4
2015-Sep-02 04:25N 31°46' E 121°00'4450.6
2015-Sep-02 03:33N 31°22' E 121°43'441071.8
2015-Sep-02 03:31N 31°46' E 121°00'415861.1
2015-Sep-02 03:31N 31°16' E 121°32'1111.5
2015-Sep-02 02:33N 31°22' E 121°43'441382.2
2015-Sep-02 02:31N 31°46' E 121°00'416978.3
2015-Sep-02 02:31N 31°16' E 121°32'1111.7
2015-Sep-02 01:33N 31°22' E 121°43'441101.9
2015-Sep-02 01:31N 31°46' E 121°00'41367.3
2015-Sep-02 01:24N 31°16' E 121°32'1113.0
2015-Sep-02 00:33N 31°22' E 121°43'11234.9
2015-Sep-02 00:30N 31°16' E 121°32'41456.5
2015-Sep-02 00:25N 31°46' E 121°00'4451.0
2015-Sep-01 23:33N 31°22' E 121°43'113328.7
2015-Sep-01 23:33N 31°16' E 121°32'41927.5
2015-Sep-01 23:31N 31°46' E 121°00'4142.5
2015-Sep-01 22:33N 31°16' E 121°32'111664.3
2015-Sep-01 22:33N 31°22' E 121°43'441370.2
2015-Sep-01 22:31N 31°46' E 121°00'4445.7
2015-Sep-01 21:33N 31°22' E 121°43'6679753.8
2015-Sep-01 21:33N 32°00' E 120°40'6315214.4
2015-Sep-01 21:33N 31°16' E 121°32'411039.3
2015-Sep-01 21:31N 31°46' E 121°00'0 0.0
2015-Sep-01 20:34N 31°46' E 121°00'4452518.9
2015-Sep-01 20:33N 31°22' E 121°43'111664.3
2015-Sep-01 20:33N 31°16' E 121°32'59106800.7
2015-Sep-01 20:33N 32°01' E 120°47'1918.9
2015-Sep-01 19:34N 31°46' E 121°00'4439389.2
2015-Sep-01 19:33N 31°22' E 121°43'558277.8
2015-Sep-01 19:33N 31°56' E 120°52'5347584.5
2015-Sep-01 19:33N 31°16' E 121°32'1111.2
2015-Sep-01 18:33N 31°22' E 121°43'111902.1
2015-Sep-01 18:33N 31°16' E 121°32'451426.9
2015-Sep-01 18:31N 31°48' E 120°56'5443.1
2015-Sep-01 18:30N 31°46' E 121°00'356909.4
2015-Sep-01 18:07N 37°42' E 121°09'381682.7
2015-Sep-01 17:33N 31°22' E 121°43'111079.6
2015-Sep-01 17:33N 31°16' E 121°32'411101.8
2015-Sep-01 17:31N 31°46' E 121°00'35734737.8
2015-Sep-01 17:30N 37°42' E 121°15'8 8.5
2015-Sep-01 16:33N 37°44' E 121°25'3834564.2
2015-Sep-01 16:28N 31°22' E 121°43'44736.2
2015-Sep-01 16:25N 31°46' E 121°00'41190.6
2015-Sep-01 16:12N 31°16' E 121°32'1117.4
2015-Sep-01 15:33N 31°22' E 121°43'38357482.2
2015-Sep-01 15:33N 37°45' E 121°25'3897004.4
2015-Sep-01 15:30N 31°16' E 121°32'1111.8
2015-Sep-01 14:33N 31°22' E 121°43'11665.7
2015-Sep-01 14:32N 31°16' E 121°32'39025044.1
2015-Sep-01 14:32N 37°45' E 121°25'384395.3
2015-Sep-01 13:33N 31°22' E 121°43'11170.7
2015-Sep-01 13:29N 31°16' E 121°32'3913645.0
2015-Sep-01 13:23N 37°46' E 121°20'385460.5
2015-Sep-01 12:33N 31°22' E 121°43'38528290.7
2015-Sep-01 12:32N 37°46' E 121°20'3911996.0
2015-Sep-01 12:20N 31°16' E 121°32'1114.2
2015-Sep-01 11:33N 31°22' E 121°43'3856045.1
2015-Sep-01 11:30N 37°46' E 121°24'39073976.0
2015-Sep-01 11:29N 31°16' E 121°32'23109.9
2015-Sep-01 11:17N 31°35' E 121°19'2 3.5
2015-Sep-01 10:33N 31°33' E 121°21'2018363.9
2015-Sep-01 10:33N 31°16' E 121°32'111997.2
2015-Sep-01 10:33N 31°22' E 121°43'44966.7
2015-Sep-01 10:30N 31°46' E 121°00'4446.3
2015-Sep-01 09:33N 31°22' E 121°43'9502.5
2015-Sep-01 09:32N 31°19' E 121°33'13733.1
2015-Sep-01 09:31N 31°31' E 121°25'26214.1
2015-Sep-01 09:24N 31°46' E 121°00'4451.9
2015-Sep-01 08:33N 31°22' E 121°43'933377.9
2015-Sep-01 08:33N 31°24' E 121°33'310.2
2015-Sep-01 08:16N 31°26' E 121°30'1216.2
2015-Sep-01 07:33N 31°20' E 121°42'2388.8
2015-Sep-01 07:33N 31°22' E 121°43'11911.2
2015-Sep-01 07:32N 31°22' E 121°30'1111.6
2015-Sep-01 06:33N 31°22' E 121°43'112596.0
2015-Sep-01 06:33N 31°21' E 121°31'1717.2
2015-Sep-01 05:33N 31°35' E 121°18'2522674.0
2015-Sep-01 05:33N 31°22' E 121°43'1189.1
2015-Sep-01 05:26N 31°21' E 121°31'0 0.0
2015-Sep-01 04:33N 31°21' E 121°31'11927.1
2015-Sep-01 04:33N 31°22' E 121°43'14394.8
2015-Sep-01 04:30N 31°27' E 121°28'1414.8
2015-Sep-01 03:34N 31°22' E 121°43'4307.8
2015-Sep-01 03:33N 31°22' E 121°39'71625.9
2015-Sep-01 03:33N 31°21' E 121°31'1111.0
2015-Sep-01 02:33N 31°22' E 121°43'95205.7
2015-Sep-01 02:33N 31°14' E 121°48'16728.0
2015-Sep-01 02:32N 31°21' E 121°31'1111.0
2015-Sep-01 01:33N 31°22' E 121°43'181345.4
2015-Sep-01 01:33N 31°08' E 121°56'2510176.1
2015-Sep-01 01:33N 31°21' E 121°31'5252.7
2015-Sep-01 00:34N 31°59' E 120°49'59106876.5
2015-Sep-01 00:33N 31°22' E 121°43'11503.3
2015-Sep-01 00:32N 31°21' E 121°31'1111.0
2015-Aug-31 23:33N 31°22' E 121°43'112333.1
2015-Aug-31 23:33N 31°22' E 121°30'1111.0
2015-Aug-31 22:33N 31°22' E 121°43'11592.0
2015-Aug-31 22:32N 31°22' E 121°30'3811077.0
2015-Aug-31 22:11N 37°42' E 121°09'381606.1
2015-Aug-31 21:33N 31°22' E 121°43'111586.5
2015-Aug-31 21:33N 31°22' E 121°30'3849866.7
2015-Aug-31 21:31N 37°45' E 121°16'384400.2
2015-Aug-31 20:33N 31°22' E 121°43'11161.9
2015-Aug-31 20:29N 31°22' E 121°30'1111.9
2015-Aug-31 19:33N 31°22' E 121°43'11343.3
2015-Aug-31 19:32N 31°22' E 121°30'4211065.4
2015-Aug-31 19:08N 24°47' E 118°46'425734.4
2015-Aug-31 18:33N 31°22' E 121°43'11692.7
2015-Aug-31 18:32N 31°21' E 121°30'38915908.0
2015-Aug-31 18:31N 37°50' E 121°22'358798.6
2015-Aug-31 18:04N 31°57' E 120°17'82160.0
2015-Aug-31 17:33N 31°22' E 121°43'11369.0
2015-Aug-31 17:32N 31°21' E 121°30'3881472.5
2015-Aug-31 17:16N 37°50' E 121°28'394556.6
2015-Aug-31 16:33N 31°16' E 121°45'61103.6
2015-Aug-31 16:33N 31°22' E 121°43'11147.9
2015-Aug-31 16:29N 31°21' E 121°30'1111.9
2015-Aug-31 15:33N 31°22' E 121°43'116580.1
2015-Aug-31 15:33N 31°21' E 121°30'219502.7
2015-Aug-31 15:33N 31°11' E 121°52'1313.3
2015-Aug-31 14:33N 31°22' E 121°43'111101.7
2015-Aug-31 14:33N 31°22' E 121°30'27231.1
2015-Aug-31 14:26N 31°07' E 121°57'5 6.0
2015-Aug-31 13:34N 31°04' E 122°02'246564.6
2015-Aug-31 13:33N 31°22' E 121°43'117932.2
2015-Aug-31 13:33N 31°22' E 121°30'1111.0
2015-Aug-31 12:33N 31°22' E 121°43'42518423.2
2015-Aug-31 12:32N 24°47' E 118°46'4214069.6
2015-Aug-31 12:26N 31°22' E 121°30'0 0.0
2015-Aug-31 11:33N 31°22' E 121°30'113050.8
2015-Aug-31 11:33N 31°22' E 121°43'0 0.0
2015-Aug-31 10:33N 31°22' E 121°43'111071.9
2015-Aug-31 10:32N 31°22' E 121°30'1111.3
2015-Aug-31 09:33N 31°22' E 121°43'11408.9
2015-Aug-31 09:32N 31°22' E 121°30'1111.3
2015-Aug-31 08:33N 31°22' E 121°43'11154.3
2015-Aug-31 08:29N 31°22' E 121°30'1111.8
2015-Aug-31 07:33N 31°22' E 121°43'11323.5
2015-Aug-31 07:31N 31°22' E 121°30'1111.7
2015-Aug-31 06:33N 31°22' E 121°43'12657.7
2015-Aug-31 06:32N 31°25' E 121°30'1212.4
2015-Aug-31 05:33N 31°22' E 121°43'13628.9
2015-Aug-31 05:32N 31°26' E 121°28'1313.6
2015-Aug-31 04:34N 31°22' E 121°43'131291.7
2015-Aug-31 04:33N 31°26' E 121°28'53141.1
2015-Aug-31 04:10N 32°03' E 120°45'0 0.0
2015-Aug-31 03:31N 32°03' E 120°45'53204.8
2015-Aug-31 03:16N 31°26' E 121°28'0 0.0
2015-Aug-31 02:33N 31°26' E 121°28'13200.8
2015-Aug-31 02:29N 31°22' E 121°43'651179.3
2015-Aug-31 02:26N 32°04' E 120°45'6573.4
2015-Aug-31 01:33N 31°22' E 121°43'13109.4
2015-Aug-31 01:26N 31°26' E 121°28'1315.5
2015-Aug-31 00:33N 31°22' E 121°43'0 0.0
2015-Aug-30 23:33N 31°22' E 121°43'133718.2
2015-Aug-30 23:33N 31°26' E 121°28'939884.8
2015-Aug-30 23:33N 29°57' E 122°04'8687.3
2015-Aug-30 22:33N 31°22' E 121°43'13315.9
2015-Aug-30 22:31N 31°26' E 121°28'1314.0
2015-Aug-30 21:33N 31°22' E 121°43'133982.6
2015-Aug-30 21:33N 31°26' E 121°28'1313.3
2015-Aug-30 20:33N 31°22' E 121°43'13181.7
2015-Aug-30 20:29N 31°26' E 121°28'1314.4
2015-Aug-30 19:33N 31°22' E 121°43'131493.5
2015-Aug-30 19:33N 31°26' E 121°28'1313.4
2015-Aug-30 18:33N 31°22' E 121°43'131593.1
2015-Aug-30 18:33N 31°26' E 121°28'1313.4
2015-Aug-30 17:33N 31°22' E 121°43'13247.7
2015-Aug-30 17:30N 31°26' E 121°28'1314.0
2015-Aug-30 16:33N 31°22' E 121°43'133414.2
2015-Aug-30 16:33N 31°26' E 121°28'1313.1
2015-Aug-30 15:32N 31°22' E 121°43'131448.4
2015-Aug-30 15:32N 31°26' E 121°28'1313.6
2015-Aug-30 14:33N 31°22' E 121°43'13770.8
2015-Aug-30 14:32N 31°26' E 121°28'0 0.0
2015-Aug-30 13:33N 31°26' E 121°28'13408.5
2015-Aug-30 13:31N 31°22' E 121°43'0 0.0
2015-Aug-30 12:33N 31°22' E 121°43'1311947.9
2015-Aug-30 12:33N 31°26' E 121°28'1313.3
2015-Aug-30 11:33N 31°22' E 121°43'1311947.9
2015-Aug-30 11:33N 31°26' E 121°28'1313.3
2015-Aug-30 10:33N 31°22' E 121°43'131448.2
2015-Aug-30 10:33N 31°26' E 121°28'1313.4
2015-Aug-30 09:33N 31°22' E 121°43'132172.3
2015-Aug-30 09:33N 31°26' E 121°28'1313.4
2015-Aug-30 08:33N 31°22' E 121°43'131493.5
2015-Aug-30 08:33N 31°26' E 121°28'0 0.0
2015-Aug-30 07:34N 31°26' E 121°28'1323899.1
2015-Aug-30 07:34N 31°22' E 121°43'0 0.0
2015-Aug-30 06:34N 31°22' E 121°43'13853.4
2015-Aug-30 06:33N 31°26' E 121°28'1313.5
2015-Aug-30 05:34N 31°22' E 121°43'13620.8
2015-Aug-30 05:32N 31°26' E 121°28'1313.6
2015-Aug-30 04:34N 31°22' E 121°43'132811.7
2015-Aug-30 04:33N 31°26' E 121°28'1313.3
2015-Aug-30 03:33N 31°22' E 121°43'13612.8
2015-Aug-30 03:32N 31°26' E 121°28'1313.6
2015-Aug-30 02:33N 31°22' E 121°43'13713.3
2015-Aug-30 02:32N 31°26' E 121°28'1313.5
2015-Aug-30 01:33N 31°22' E 121°43'13193.2
2015-Aug-30 01:29N 31°26' E 121°29'1313.9
2015-Aug-30 00:33N 31°22' E 121°43'11420.5
2015-Aug-30 00:32N 31°24' E 121°31'1110.9
2015-Aug-29 23:34N 31°22' E 121°43'11275.3
2015-Aug-29 23:31N 31°24' E 121°31'1111.0
2015-Aug-29 22:33N 31°22' E 121°43'11184.5
2015-Aug-29 22:30N 31°24' E 121°31'1111.4
2015-Aug-29 21:33N 31°22' E 121°43'0 0.0
2015-Aug-29 20:33N 31°22' E 121°43'0 0.0
2015-Aug-29 19:33N 31°22' E 121°43'0 0.0
2015-Aug-29 18:33N 31°22' E 121°43'0 0.0
2015-Aug-29 17:33N 31°22' E 121°43'0 0.0
2015-Aug-29 16:33N 31°22' E 121°43'0 0.0
2015-Aug-29 15:33N 31°22' E 121°43'0 0.0
2015-Aug-29 14:30N 31°22' E 121°43'0 0.0
2015-Aug-29 13:33N 31°22' E 121°43'0 0.0
2015-Aug-29 12:34N 31°22' E 121°43'0 0.0
2015-Aug-29 11:33N 31°22' E 121°43'0 0.0
2015-Aug-29 10:33N 31°22' E 121°43'24363.9
2015-Aug-29 10:29N 31°01' E 121°29'2425.5
2015-Aug-29 09:33N 31°22' E 121°43'8 8.5
2015-Aug-29 08:33N 31°24' E 121°33'30109188.7
2015-Aug-29 08:33N 30°58' E 121°15'3330.9
2015-Aug-29 07:29N 31°29' E 121°26'6 6.5
2015-Aug-29 06:33N 31°34' E 121°22'4 4.1
2015-Aug-29 05:34N 31°39' E 121°21'0 0.0
2015-Aug-29 04:33N 31°39' E 121°21'42116.4
2015-Aug-29 04:12N 30°57' E 121°12'4266.6
2015-Aug-29 03:34N 31°39' E 121°21'0 0.0
2015-Aug-29 02:33N 31°39' E 121°21'0 0.0
2015-Aug-29 01:33N 31°39' E 121°21'0 0.0
2015-Aug-29 00:33N 31°39' E 121°21'0 0.0
2015-Aug-28 23:33N 31°39' E 121°21'0 0.0
2015-Aug-28 22:34N 31°39' E 121°21'0 0.0
2015-Aug-28 21:33N 31°39' E 121°21'0 0.0
2015-Aug-28 20:33N 31°39' E 121°21'0 0.0
2015-Aug-28 19:33N 31°39' E 121°21'0 0.0
2015-Aug-28 18:33N 31°39' E 121°21'0 0.0
2015-Aug-28 17:33N 31°39' E 121°21'0 0.0
2015-Aug-28 16:33N 31°39' E 121°21'0 0.0
2015-Aug-28 15:33N 31°39' E 121°21'0 0.0
2015-Aug-28 14:33N 31°39' E 121°21'0 0.0
2015-Aug-28 13:33N 31°39' E 121°21'0 0.0
2015-Aug-28 12:33N 31°39' E 121°21'0 0.0
2015-Aug-28 11:33N 31°39' E 121°21'0 0.0
2015-Aug-28 10:33N 31°39' E 121°21'0 0.0
2015-Aug-28 09:33N 31°39' E 121°21'0 0.0
2015-Aug-28 08:33N 31°39' E 121°21'0 0.0
2015-Aug-28 07:33N 31°39' E 121°21'111 6.9
2015-Aug-27 15:27N 29°55' E 122°07'8 7.8
2015-Aug-27 14:23N 30°01' E 121°60'9576.9
2015-Aug-27 13:09N 31°31' E 121°25'6281.7
2015-Aug-27 13:08N 31°26' E 121°29'1 2.0
2015-Aug-27 12:32N 31°27' E 121°29'8 7.6
2015-Aug-27 11:33N 31°23' E 121°36'6 6.0
2015-Aug-27 10:33N 31°22' E 121°43'0 0.0
2015-Aug-27 09:33N 31°22' E 121°43'0 0.0
2015-Aug-27 08:33N 31°22' E 121°43'0 0.1
2015-Aug-27 07:33N 31°22' E 121°43'37320.6
2015-Aug-27 07:26N 30°59' E 121°08'3742.3
2015-Aug-27 06:33N 31°22' E 121°43'36774.7
2015-Aug-27 06:31N 30°57' E 121°12'4 4.4
2015-Aug-27 05:33N 30°57' E 121°17'3359683.0
2015-Aug-27 05:33N 31°22' E 121°43'44135.3
2015-Aug-27 05:14N 31°46' E 121°00'4464.8
2015-Aug-27 04:33N 31°22' E 121°43'282046.7
2015-Aug-27 04:32N 30°59' E 121°23'5022569.7
2015-Aug-27 04:32N 31°46' E 121°00'69212.5
2015-Aug-27 04:13N 31°03' E 122°04'2639.3
2015-Aug-27 03:33N 31°22' E 121°43'211061.7
2015-Aug-27 03:32N 31°05' E 121°59'6410500.9
2015-Aug-27 03:32N 31°46' E 121°00'4444.9
2015-Aug-27 02:33N 31°22' E 121°43'1513599.9
2015-Aug-27 02:33N 31°09' E 121°53'1515.2
2015-Aug-27 01:33N 31°22' E 121°43'12242.0
2015-Aug-27 01:31N 31°11' E 121°49'54237.8
2015-Aug-27 01:17N 31°46' E 121°00'5475.2
2015-Aug-27 00:34N 31°11' E 121°49'123007.9
2015-Aug-27 00:33N 31°22' E 121°43'44195.8
2015-Aug-27 00:20N 31°46' E 121°00'4456.8
2015-Aug-26 23:33N 31°22' E 121°43'978.4
2015-Aug-26 23:27N 31°20' E 121°33'38331.7
2015-Aug-26 23:20N 31°46' E 121°00'5470.3
2015-Aug-26 22:33N 31°11' E 121°50'126024.7
2015-Aug-26 22:33N 31°22' E 121°43'121070.0
2015-Aug-26 22:33N 31°22' E 121°30'1414.0
2015-Aug-26 21:33N 31°17' E 121°45'53749.7
2015-Aug-26 21:33N 31°22' E 121°43'124728.5
2015-Aug-26 21:33N 31°25' E 121°30'6 6.3
2015-Aug-26 20:33N 31°22' E 121°37'39216.9
2015-Aug-26 20:23N 31°46' E 121°00'3643.3
2015-Aug-26 19:33N 31°21' E 121°31'114287.6
2015-Aug-26 19:33N 31°22' E 121°43'241487.1
2015-Aug-26 19:32N 31°34' E 121°19'2063.6
2015-Aug-26 19:14N 31°46' E 121°00'4463.6
2015-Aug-26 18:32N 31°22' E 121°43'444154.6
2015-Aug-26 18:32N 31°46' E 121°00'37133958.8
2015-Aug-26 18:32N 31°20' E 121°32'10 9.8
2015-Aug-26 17:33N 31°22' E 121°43'441629.2
2015-Aug-26 17:32N 31°46' E 121°00'37694.1
2015-Aug-26 17:29N 31°20' E 121°32'910.3
2015-Aug-26 16:33N 31°22' E 121°43'9126.1
2015-Aug-26 16:29N 31°20' E 121°32'910.2
2015-Aug-26 15:33N 31°22' E 121°43'9127.8
2015-Aug-26 15:29N 31°20' E 121°32'910.2
2015-Aug-26 14:33N 31°22' E 121°43'971.0
2015-Aug-26 14:25N 31°20' E 121°32'910.9
2015-Aug-26 13:33N 31°22' E 121°43'9260.6
2015-Aug-26 13:31N 31°20' E 121°32'1919.8
2015-Aug-26 12:33N 31°35' E 121°18'2513006.8
2015-Aug-26 12:33N 31°22' E 121°43'9271.0
2015-Aug-26 12:31N 31°20' E 121°32'9 9.8
2015-Aug-26 11:33N 31°22' E 121°43'91555.6
2015-Aug-26 11:33N 31°20' E 121°33'954.7
2015-Aug-26 11:23N 31°28' E 121°28'1517.8
2015-Aug-26 10:33N 31°22' E 121°43'141795.7
2015-Aug-26 10:33N 31°14' E 121°29'1046.7
2015-Aug-26 10:20N 31°23' E 121°37'6 7.2
2015-Aug-26 09:33N 31°22' E 121°43'353.7
2015-Aug-26 09:30N 31°18' E 121°43'3 3.6
2015-Aug-26 08:33N 31°22' E 121°43'102093.4
2015-Aug-26 08:33N 31°13' E 121°49'1616.3
2015-Aug-26 07:33N 31°23' E 121°35'24461.5
2015-Aug-26 07:30N 31°07' E 121°57'2424.2
2015-Aug-26 06:30N 31°20' E 121°33'7 7.5
2015-Aug-26 05:32N 31°14' E 121°30'5 4.4
2015-Aug-26 04:28N 31°17' E 121°34'10100.0
2015-Aug-26 04:22N 31°08' E 121°27'4 4.7
2015-Aug-26 03:33N 31°05' E 121°28'13207.0
2015-Aug-26 03:29N 31°17' E 121°34'1717.9
2015-Aug-26 02:33N 31°01' E 121°28'17141.7
2015-Aug-26 02:26N 31°17' E 121°34'  

Dump ship's entire track history